Time;durP1;ratioP1;P1;durP2;ratioP2;P2;SDS_P1;SDS_P2;PMS_P1;PMS_P2;Temp;Humidity;BMP_temperature;BMP_pressure;BME280_temperature;BME280_humidity;BME280_pressure;Samples;Min_cycle;Max_cycle;Signal;HPM_P1;HPM_P2
2023/05/23 00:01:17;;;;;;;10.95;5.60;;;;;;;16.57;100.00;100225.91;5071815;28;20147;-75
2023/05/23 00:03:43;;;;;;;7.28;5.70;;;;;;;16.54;100.00;100183.22;5072292;28;20483;-74
2023/05/23 00:06:09;;;;;;;6.35;5.72;;;;;;;16.64;100.00;100232.41;5073043;28;20067;-75
2023/05/23 00:08:34;;;;;;;8.13;5.50;;;;;;;16.73;100.00;100237.94;5073021;28;20039;-75
2023/05/23 00:11:00;;;;;;;8.40;5.75;;;;;;;16.53;100.00;100234.66;5073510;28;20044;-75
2023/05/23 00:13:25;;;;;;;8.68;5.70;;;;;;;16.25;100.00;100192.31;5072335;28;20124;-75
2023/05/23 00:15:51;;;;;;;11.38;6.00;;;;;;;16.57;100.00;100231.88;5072646;28;20036;-74
2023/05/23 00:18:17;;;;;;;8.65;6.10;;;;;;;16.57;100.00;100228.47;5072696;28;20162;-75
2023/05/23 00:20:42;;;;;;;9.02;5.65;;;;;;;16.26;100.00;100206.00;5073193;28;20028;-75
2023/05/23 00:23:09;;;;;;;9.95;5.60;;;;;;;16.20;100.00;100188.31;5072783;28;20048;-76
2023/05/23 00:25:35;;;;;;;7.60;5.95;;;;;;;16.55;100.00;100213.13;5073284;28;20039;-75
2023/05/23 00:28:02;;;;;;;7.72;5.75;;;;;;;16.31;100.00;100180.94;5055678;28;20048;-74
2023/05/23 00:30:31;;;;;;;7.97;6.22;;;;;;;16.60;100.00;100221.44;5054726;28;20577;-75
2023/05/23 00:32:57;;;;;;;7.28;5.65;;;;;;;16.55;100.00;100222.56;5072195;28;20032;-75
2023/05/23 00:35:23;;;;;;;7.90;5.55;;;;;;;16.48;100.00;100225.44;5072643;28;20055;-75
2023/05/23 00:37:50;;;;;;;7.28;5.82;;;;;;;16.60;100.00;100223.19;5054524;28;20155;-75
2023/05/23 00:40:18;;;;;;;7.22;6.10;;;;;;;16.51;100.00;100224.47;5054783;28;20028;-75
2023/05/23 00:42:43;;;;;;;8.25;5.70;;;;;;;16.56;100.00;100231.94;5072797;28;20034;-75
2023/05/23 00:45:11;;;;;;;7.93;5.90;;;;;;;16.14;100.00;100171.47;5071882;28;20111;-75
2023/05/23 00:47:38;;;;;;;9.07;6.22;;;;;;;16.33;100.00;100173.97;5054709;28;20312;-74
2023/05/23 00:50:05;;;;;;;8.95;6.07;;;;;;;16.32;100.00;100162.06;5072179;28;20056;-75
2023/05/23 00:52:31;;;;;;;8.75;5.97;;;;;;;16.55;100.00;100235.41;5071853;28;20040;-75
2023/05/23 00:54:57;;;;;;;8.65;6.40;;;;;;;16.05;100.00;100165.94;5072477;28;20490;-75
2023/05/23 00:57:22;;;;;;;8.30;5.75;;;;;;;15.87;100.00;100161.66;5072053;28;20479;-74
2023/05/23 00:59:48;;;;;;;8.32;5.25;;;;;;;16.29;100.00;100227.19;5071309;28;20055;-74
2023/05/23 01:02:13;;;;;;;7.75;6.10;;;;;;;15.80;100.00;100168.00;5071086;28;20029;-74
2023/05/23 01:04:39;;;;;;;7.00;6.00;;;;;;;16.09;100.00;100224.72;5071862;28;20408;-75
2023/05/23 01:07:04;;;;;;;7.70;6.28;;;;;;;15.65;100.00;100148.22;5071080;28;20049;-72
2023/05/23 01:09:30;;;;;;;6.60;5.90;;;;;;;16.09;100.00;100240.13;5071603;28;20060;-75
2023/05/23 01:12:30;;;;;;;8.10;6.20;;;;;;;16.20;100.00;100237.88;5071183;28;20487;-75
2023/05/23 01:15:05;;;;;;;6.85;6.15;;;;;;;16.11;100.00;100240.88;5073821;28;20033;-73
2023/05/23 01:17:44;;;;;;;8.48;6.32;;;;;;;15.91;100.00;100196.53;5075273;28;20048;-74
2023/05/23 01:20:44;;;;;;;13.35;5.95;;;;;;;16.15;100.00;100257.78;5075379;28;20928;-73
2023/05/23 01:23:31;;;;;;;11.88;6.72;;;;;;;16.27;100.00;100275.19;5053715;28;20044;-74
2023/05/23 01:26:12;;;;;;;9.20;6.80;;;;;;;15.95;100.00;100236.50;5075939;28;20028;-73
2023/05/23 01:28:44;;;;;;;11.18;6.65;;;;;;;16.15;100.00;100273.19;5076013;28;20028;-75
2023/05/23 01:31:17;;;;;;;10.20;6.47;;;;;;;15.88;100.00;100245.41;5076178;28;20021;-74
2023/05/23 01:33:43;;;;;;;10.27;6.60;;;;;;;15.63;100.00;100218.28;5075499;28;20025;-74
2023/05/23 01:36:12;;;;;;;10.43;6.70;;;;;;;16.18;100.00;100308.13;5074852;28;20035;-72
2023/05/23 01:38:38;;;;;;;8.80;6.20;;;;;;;15.92;100.00;100255.47;5057023;28;20045;-72
2023/05/23 01:41:03;;;;;;;7.93;6.53;;;;;;;16.13;100.00;100326.28;5056565;28;20495;-72
2023/05/23 01:43:29;;;;;;;8.93;6.32;;;;;;;16.24;100.00;100346.34;5074697;28;20025;-73
2023/05/23 01:45:56;;;;;;;8.68;6.00;;;;;;;15.76;100.00;100290.38;5075020;28;20029;-74
2023/05/23 01:48:23;;;;;;;7.22;6.13;;;;;;;16.00;100.00;100308.97;5074045;28;20146;-73
2023/05/23 01:50:49;;;;;;;7.85;6.22;;;;;;;16.28;100.00;100358.13;5063141;28;20034;-73
2023/05/23 01:53:18;;;;;;;7.38;6.15;;;;;;;15.90;100.00;100323.09;5074708;28;20505;-72
2023/05/23 01:55:44;;;;;;;8.70;6.45;;;;;;;16.06;100.00;100371.09;5074316;28;20036;-73
2023/05/23 01:58:09;;;;;;;9.88;6.85;;;;;;;16.21;100.00;100384.94;5074661;28;20031;-74
2023/05/23 02:00:35;;;;;;;11.02;7.00;;;;;;;16.08;100.00;100384.69;5056326;28;20036;-74
2023/05/23 02:03:01;;;;;;;7.72;6.40;;;;;;;16.23;100.00;100403.69;5074317;28;20044;-74
2023/05/23 02:05:26;;;;;;;8.32;7.18;;;;;;;15.85;100.00;100366.03;5074833;28;20036;-74
2023/05/23 02:07:52;;;;;;;10.40;7.20;;;;;;;15.78;100.00;100433.88;5074369;28;20469;-74
2023/05/23 02:10:18;;;;;;;7.97;7.18;;;;;;;15.21;100.00;100414.81;5074511;28;20036;-74
2023/05/23 02:12:44;;;;;;;10.25;7.82;;;;;;;15.19;100.00;100474.69;5056633;28;20040;-74
2023/05/23 02:15:10;;;;;;;11.63;8.20;;;;;;;14.74;100.00;100479.81;5073846;28;20052;-74
2023/05/23 02:17:37;;;;;;;9.95;7.80;;;;;;;15.20;100.00;100551.47;5072842;28;20418;-74
2023/05/23 02:20:03;;;;;;;10.65;8.45;;;;;;;15.09;100.00;100604.84;5058454;28;20040;-74
2023/05/23 02:22:28;;;;;;;10.98;8.18;;;;;;;14.77;100.00;100641.00;5054206;28;20029;-74
2023/05/23 02:24:54;;;;;;;15.02;8.10;;;;;;;15.11;100.00;100700.41;5054540;28;20479;-74
2023/05/23 02:27:19;;;;;;;10.50;8.20;;;;;;;15.08;100.00;100790.13;5053142;28;20044;-75
2023/05/23 02:29:45;;;;;;;9.52;8.18;;;;;;;15.19;100.00;100912.75;5036547;28;20044;-74
2023/05/23 02:32:11;;;;;;;13.85;8.65;;;;;;;14.86;100.00;100903.53;5053757;28;20029;-74
2023/05/23 02:34:37;;;;;;;13.15;9.32;;;;;;;14.73;100.00;100944.88;5053948;28;20029;-73
2023/05/23 02:37:02;;;;;;;15.45;9.07;;;;;;;14.95;100.00;100995.47;5058105;28;20036;-74
2023/05/23 02:39:28;;;;;;;10.93;8.38;;;;;;;15.24;100.00;101085.94;5073137;28;20482;-74
2023/05/23 02:41:53;;;;;;;14.82;8.63;;;;;;;15.13;100.00;101123.00;5053013;28;20121;-74
2023/05/23 02:44:18;;;;;;;10.88;8.98;;;;;;;15.11;100.00;101132.44;5073650;28;20577;-74
2023/05/23 02:46:45;;;;;;;18.08;15.88;;;;;;;14.90;100.00;101115.94;5073172;28;20111;-74
2023/05/23 02:49:10;;;;;;;15.63;12.95;;;;;;;15.10;100.00;101216.13;5074104;28;20552;-75
2023/05/23 02:51:36;;;;;;;18.48;12.43;;;;;;;14.74;100.00;101196.59;5073823;28;20024;-74
2023/05/23 02:54:01;;;;;;;13.85;11.65;;;;;;;15.07;100.00;101243.56;5073096;28;20032;-74
2023/05/23 02:56:27;;;;;;;12.95;11.02;;;;;;;14.86;100.00;101237.25;5073155;28;20032;-73
2023/05/23 02:58:52;;;;;;;13.10;11.57;;;;;;;14.99;100.00;101301.81;5055170;28;20082;-74
2023/05/23 03:01:18;;;;;;;13.63;10.73;;;;;;;14.61;100.00;101272.03;5072733;28;20043;-74
2023/05/23 03:03:44;;;;;;;13.82;10.65;;;;;;;14.46;100.00;101282.63;5073134;28;20113;-73
2023/05/23 03:06:13;;;;;;;18.95;10.80;;;;;;;14.94;100.00;101371.06;5073020;28;20131;-74
2023/05/23 03:08:42;;;;;;;13.70;10.25;;;;;;;14.70;100.00;101340.91;5055211;28;20029;-73
2023/05/23 03:11:08;;;;;;;14.63;10.55;;;;;;;14.75;100.00;101426.16;5054810;28;20090;-74
2023/05/23 03:13:34;;;;;;;12.98;9.98;;;;;;;15.14;100.00;101439.78;5072581;28;20036;-73
2023/05/23 03:16:00;;;;;;;14.43;10.80;;;;;;;14.58;100.00;101421.38;5054852;28;20031;-74
2023/05/23 03:18:25;;;;;;;15.10;11.10;;;;;;;14.91;100.00;101481.28;5061139;28;20036;-74
2023/05/23 03:20:51;;;;;;;15.55;12.30;;;;;;;14.46;100.00;101456.66;5072589;28;20097;-74
2023/05/23 03:23:16;;;;;;;17.58;11.38;;;;;;;14.78;100.00;101578.00;5053433;28;20478;-74
2023/05/23 03:25:42;;;;;;;15.23;11.60;;;;;;;14.39;100.00;101514.78;5072661;28;20143;-74
2023/05/23 03:28:07;;;;;;;19.00;11.50;;;;;;;14.11;100.00;101548.50;5072728;28;20029;-74
2023/05/23 03:30:33;;;;;;;19.10;12.23;;;;;;;14.51;100.00;101575.13;5069944;28;20052;-74
2023/05/23 03:32:59;;;;;;;23.50;13.00;;;;;;;14.70;100.00;101632.78;5055013;28;20029;-74
2023/05/23 03:35:24;;;;;;;17.98;11.68;;;;;;;13.81;100.00;101578.81;5047218;28;20036;-73
2023/05/23 03:37:49;;;;;;;16.58;10.60;;;;;;;14.81;100.00;101640.25;5051207;28;20080;-73
2023/05/23 03:40:15;;;;;;;15.82;10.63;;;;;;;14.71;100.00;101670.31;5059415;28;20128;-75
2023/05/23 03:42:40;;;;;;;15.00;10.52;;;;;;;14.34;100.00;101666.69;5073337;28;20020;-74
2023/05/23 03:45:06;;;;;;;13.45;10.40;;;;;;;14.81;100.00;101725.63;5073138;28;20093;-77
2023/05/23 03:47:31;;;;;;;16.95;10.05;;;;;;;14.64;100.00;101700.28;5072730;28;20029;-75
2023/05/23 03:49:57;;;;;;;14.90;10.30;;;;;;;15.18;100.00;101746.28;5071238;28;20036;-75
2023/05/23 03:52:22;;;;;;;16.98;10.30;;;;;;;15.15;100.00;101718.19;5072289;28;20067;-79
2023/05/23 03:54:48;;;;;;;15.40;10.02;;;;;;;15.35;100.00;101750.22;5073596;28;20360;-79
2023/05/23 03:57:13;;;;;;;13.25;9.95;;;;;;;15.00;100.00;101682.59;5072782;28;20043;-77
2023/05/23 03:59:39;;;;;;;16.23;9.63;;;;;;;15.38;100.00;101692.94;5072188;28;20036;-77
2023/05/23 04:02:05;;;;;;;20.25;9.55;;;;;;;15.21;100.00;101692.44;5072568;28;20024;-76
2023/05/23 04:04:31;;;;;;;13.30;10.68;;;;;;;14.85;100.00;101640.19;5072810;28;20044;-77
2023/05/23 04:06:57;;;;;;;16.23;9.98;;;;;;;16.11;100.00;101712.75;5059878;28;20056;-79
2023/05/23 04:09:22;;;;;;;19.80;10.50;;;;;;;15.89;100.00;101691.03;5037033;28;20187;-74
2023/05/23 04:11:48;;;;;;;16.55;10.40;;;;;;;16.18;100.00;101770.78;5071775;28;20078;-76
2023/05/23 04:14:14;;;;;;;14.18;9.82;;;;;;;16.45;100.00;101742.75;5071259;28;20036;-75
2023/05/23 04:16:41;;;;;;;13.57;9.45;;;;;;;16.21;100.00;101699.69;5071545;28;20036;-73
2023/05/23 04:19:06;;;;;;;14.35;8.10;;;;;;;16.85;100.00;101734.97;5071746;28;20021;-74
2023/05/23 04:21:35;;;;;;;15.57;9.15;;;;;;;16.23;100.00;101736.44;5071615;28;20025;-74
2023/05/23 04:24:01;;;;;;;12.85;8.77;;;;;;;15.98;100.00;101725.03;5063029;28;20095;-76
2023/05/23 04:26:29;;;;;;;12.40;8.73;;;;;;;15.54;100.00;101713.16;5053866;28;20489;-75
2023/05/23 04:28:55;;;;;;;19.10;8.65;;;;;;;15.93;100.00;101703.75;5071012;28;20552;-73
2023/05/23 04:31:23;;;;;;;16.10;9.35;;;;;;;15.44;100.00;101731.31;5071610;28;20029;-74
2023/05/23 04:33:48;;;;;;;16.55;9.15;;;;;;;15.47;100.00;101668.00;5072079;28;20029;-74
2023/05/23 04:36:15;;;;;;;19.33;10.65;;;;;;;15.86;100.00;101686.81;5071256;28;20032;-74
2023/05/23 04:38:40;;;;;;;22.13;9.65;;;;;;;15.95;100.00;101675.50;5072342;28;20047;-75
2023/05/23 04:41:08;;;;;;;13.20;9.60;;;;;;;15.93;100.00;101738.81;5073064;28;20036;-76
2023/05/23 04:43:36;;;;;;;16.25;9.35;;;;;;;16.03;100.00;101719.78;5067751;28;20031;-76
2023/05/23 04:46:02;;;;;;;14.07;9.05;;;;;;;15.91;100.00;101667.03;5070113;28;20054;-74
2023/05/23 04:48:28;;;;;;;12.98;9.07;;;;;;;15.47;100.00;101670.56;5068458;28;20561;-73
2023/05/23 04:50:55;;;;;;;15.55;9.93;;;;;;;15.85;100.00;101656.06;5071254;28;20029;-73
2023/05/23 04:53:21;;;;;;;18.98;10.40;;;;;;;16.32;100.00;101736.22;5071207;28;20043;-73
2023/05/23 04:55:47;;;;;;;17.33;10.90;;;;;;;16.48;100.00;101745.28;5070434;28;20456;-74
2023/05/23 04:58:13;;;;;;;17.52;10.90;;;;;;;16.46;100.00;101739.31;5069941;28;20064;-74
2023/05/23 05:00:38;;;;;;;18.83;11.93;;;;;;;16.72;100.00;101754.13;5070299;28;20028;-74
2023/05/23 05:03:04;;;;;;;17.42;11.25;;;;;;;16.81;100.00;101707.66;5070875;28;20185;-75
2023/05/23 05:05:29;;;;;;;17.73;9.95;;;;;;;16.84;100.00;101706.72;5053846;28;20148;-75
2023/05/23 05:07:54;;;;;;;13.45;8.90;;;;;;;17.42;100.00;101754.84;5071812;28;20114;-76
2023/05/23 05:10:20;;;;;;;12.15;8.63;;;;;;;17.25;100.00;101714.19;5071347;28;20056;-75
2023/05/23 05:12:48;;;;;;;11.00;8.00;;;;;;;17.18;100.00;101700.66;5071742;28;20414;-75
2023/05/23 05:15:16;;;;;;;12.63;8.18;;;;;;;17.72;100.00;101741.16;5071566;28;20025;-75
2023/05/23 05:17:41;;;;;;;14.30;8.43;;;;;;;17.35;100.00;101703.59;5053808;28;20040;-75
2023/05/23 05:20:08;;;;;;;10.38;8.70;;;;;;;17.44;100.00;101660.50;5071431;28;20513;-76
2023/05/23 05:22:39;;;;;;;13.85;8.90;;;;;;;18.04;100.00;101753.94;5071571;28;20054;-75
2023/05/23 05:25:06;;;;;;;11.23;8.85;;;;;;;18.15;100.00;101760.44;5053918;28;20039;-73
2023/05/23 05:27:32;;;;;;;14.43;9.95;;;;;;;18.07;100.00;101690.31;5071268;28;20091;-75
2023/05/23 05:30:02;;;;;;;14.10;10.10;;;;;;;18.33;100.00;101678.31;5071036;28;20511;-75
2023/05/23 05:32:30;;;;;;;16.23;9.93;;;;;;;18.44;100.00;101714.94;5053563;28;20028;-75
2023/05/23 05:34:55;;;;;;;13.73;9.65;;;;;;;17.90;100.00;101712.31;5070892;28;20032;-74
2023/05/23 05:37:21;;;;;;;15.05;10.10;;;;;;;18.28;100.00;101711.97;5070004;28;20479;-74
2023/05/23 05:39:46;;;;;;;15.90;10.60;;;;;;;18.36;100.00;101702.25;5070788;28;20115;-75
2023/05/23 05:42:12;;;;;;;13.40;9.85;;;;;;;17.66;100.00;101612.69;5071416;28;20449;-74
2023/05/23 05:44:37;;;;;;;12.02;8.82;;;;;;;17.87;100.00;101612.88;5071290;28;20441;-75
2023/05/23 05:47:03;;;;;;;12.93;9.43;;;;;;;18.84;100.00;101707.53;5070488;28;20063;-74
2023/05/23 05:49:28;;;;;;;12.35;8.98;;;;;;;19.04;100.00;101699.97;5070772;28;20071;-75
2023/05/23 05:51:53;;;;;;;10.07;9.00;;;;;;;18.93;100.00;101666.84;5071019;28;20052;-75
2023/05/23 05:54:19;;;;;;;11.90;8.30;;;;;;;19.31;100.00;101687.84;5071593;28;20124;-75
2023/05/23 05:56:46;;;;;;;14.50;8.85;;;;;;;19.35;100.00;101685.09;5070941;28;20036;-75
2023/05/23 05:59:12;;;;;;;12.35;8.20;;;;;;;19.32;100.00;101625.00;5070911;28;20048;-75
2023/05/23 06:01:37;;;;;;;8.70;6.68;;;;;;;19.42;100.00;101616.06;5055229;28;20032;-75
2023/05/23 06:04:03;;;;;;;8.85;6.82;;;;;;;19.53;100.00;101611.34;5056984;28;20040;-74
2023/05/23 06:06:28;;;;;;;9.15;7.30;;;;;;;19.77;100.00;101616.38;5074485;28;20473;-75
2023/05/23 06:08:53;;;;;;;9.48;6.95;;;;;;;19.58;100.00;101574.13;5074806;28;20035;-75
2023/05/23 06:11:19;;;;;;;9.30;7.35;;;;;;;19.62;100.00;101526.66;5074683;28;20032;-74
2023/05/23 06:13:44;;;;;;;9.10;6.70;;;;;;;19.05;100.00;101495.38;5074913;28;20025;-75
2023/05/23 06:16:10;;;;;;;10.23;7.60;;;;;;;19.37;100.00;101512.22;5056861;28;20067;-75
2023/05/23 06:18:36;;;;;;;8.75;6.40;;;;;;;19.10;100.00;101452.19;5074982;28;20031;-75
2023/05/23 06:21:01;;;;;;;8.25;6.13;;;;;;;19.78;100.00;101485.56;5074936;28;20065;-75
2023/05/23 06:23:27;;;;;;;6.22;5.63;;;;;;;20.42;100.00;101492.25;5056810;28;20505;-74
2023/05/23 06:25:52;;;;;;;10.43;6.30;;;;;;;21.08;100.00;101451.31;5074049;28;20025;-75
2023/05/23 06:28:18;;;;;;;10.73;6.63;;;;;;;20.56;100.00;101402.00;5056238;28;20505;-75
2023/05/23 06:30:43;;;;;;;7.55;6.28;;;;;;;20.33;100.00;101353.13;5056273;28;20033;-75
2023/05/23 06:33:09;;;;;;;11.15;5.85;;;;;;;21.57;100.00;101425.53;5074275;28;20037;-75
2023/05/23 06:35:34;;;;;;;8.68;6.32;;;;;;;22.23;100.00;101384.97;5073770;28;20028;-75
2023/05/23 06:37:59;;;;;;;9.15;6.45;;;;;;;22.10;100.00;101398.69;5073917;28;20024;-75
2023/05/23 06:40:25;;;;;;;9.15;5.88;;;;;;;22.31;100.00;101372.44;5073632;28;20115;-73
2023/05/23 06:42:50;;;;;;;6.70;5.60;;;;;;;21.84;100.00;101324.09;5073294;28;20076;-74
2023/05/23 06:45:16;;;;;;;10.38;5.70;;;;;;;21.72;100.00;101314.34;5073393;28;20119;-74
2023/05/23 06:47:44;;;;;;;10.43;5.88;;;;;;;21.41;100.00;101321.09;5073072;28;20090;-75
2023/05/23 06:50:10;;;;;;;6.53;5.70;;;;;;;21.43;100.00;101311.50;5055355;28;20206;-75
2023/05/23 06:52:35;;;;;;;10.63;5.57;;;;;;;21.20;100.00;101305.81;5073602;28;20123;-74
2023/05/23 06:55:00;;;;;;;9.77;5.63;;;;;;;22.04;100.00;101290.19;5055379;28;20093;-73
2023/05/23 06:57:26;;;;;;;8.32;5.93;;;;;;;22.18;100.00;101267.78;5072957;28;20044;-74
2023/05/23 06:59:51;;;;;;;9.10;6.03;;;;;;;21.48;100.00;101231.03;5072783;28;20094;-75
2023/05/23 07:02:17;;;;;;;7.70;5.78;;;;;;;22.70;100.00;101278.66;5073263;28;20024;-74
2023/05/23 07:04:42;;;;;;;9.23;6.30;;;;;;;22.01;100.00;101228.16;5072656;28;20033;-73
2023/05/23 07:07:07;;;;;;;8.65;6.03;;;;;;;22.62;100.00;101254.94;5055345;28;20510;-75
2023/05/23 07:09:33;;;;;;;8.77;6.32;;;;;;;23.04;100.00;101251.59;5073142;28;20028;-74
2023/05/23 07:11:58;;;;;;;9.50;7.45;;;;;;;22.52;100.00;101265.91;5072765;28;20093;-74
2023/05/23 07:14:23;;;;;;;9.18;6.22;;;;;;;23.38;100.00;101238.31;5055018;28;20029;-73
2023/05/23 07:17:00;;;;;;;8.40;5.35;;;;;;;22.99;100.00;101243.28;5072527;28;20459;-73
2023/05/23 07:19:26;;;;;;;6.38;4.68;;;;;;;22.37;100.00;101176.88;5054744;28;20024;-74
2023/05/23 07:21:51;;;;;;;8.18;5.38;;;;;;;23.21;100.00;101196.94;5072774;28;20101;-74
2023/05/23 07:24:16;;;;;;;6.40;4.85;;;;;;;22.76;100.00;101158.19;5072474;28;20553;-74
2023/05/23 07:26:42;;;;;;;8.00;4.70;;;;;;;22.34;100.00;101110.47;5072390;28;20036;-73
2023/05/23 07:29:07;;;;;;;7.03;4.75;;;;;;;22.53;100.00;101162.09;5072949;28;20037;-74
2023/05/23 07:31:33;;;;;;;9.02;4.63;;;;;;;22.74;100.00;101141.88;5072029;28;20032;-73
2023/05/23 07:33:58;;;;;;;8.32;4.40;;;;;;;22.46;100.00;101201.44;5072462;28;20139;-73
2023/05/23 07:36:23;;;;;;;7.78;5.07;;;;;;;22.71;100.00;101192.19;5054583;28;20119;-73
2023/05/23 07:38:49;;;;;;;8.25;4.60;;;;;;;23.75;100.00;101185.75;5072548;28;20115;-73
2023/05/23 07:41:14;;;;;;;6.57;4.55;;;;;;;22.24;100.00;101080.84;5072641;28;20029;-73
2023/05/23 07:43:40;;;;;;;8.38;4.20;;;;;;;23.09;100.00;101145.78;5058694;28;20534;-73
2023/05/23 07:46:05;;;;;;;8.77;4.47;;;;;;;23.75;100.00;101179.75;5052023;28;20021;-74
2023/05/23 07:48:31;;;;;;;9.40;4.38;;;;;;;23.49;100.00;101149.38;5052599;28;20033;-73
2023/05/23 07:50:56;;;;;;;8.02;4.38;;;;;;;22.99;100.00;101152.44;5051878;28;20124;-74
2023/05/23 07:53:21;;;;;;;6.68;4.35;;;;;;;22.42;100.00;101234.47;5051917;28;20116;-74
2023/05/23 07:55:47;;;;;;;9.25;4.53;;;;;;;22.04;100.00;101249.56;5033702;28;20043;-74
2023/05/23 07:58:13;;;;;;;6.15;4.75;;;;;;;22.14;100.00;101268.88;5051921;28;20033;-73
2023/05/23 08:00:40;;;;;;;5.28;4.32;;;;;;;22.13;100.00;101237.84;5052184;28;20029;-73
2023/05/23 08:03:06;;;;;;;6.93;4.60;;;;;;;21.90;100.00;101173.53;5051882;28;20039;-73
2023/05/23 08:05:31;;;;;;;8.35;4.82;;;;;;;22.18;100.00;101262.63;5052138;28;20036;-73
2023/05/23 08:07:56;;;;;;;6.53;4.70;;;;;;;22.22;100.00;101271.84;5052089;28;20048;-72
2023/05/23 08:10:22;;;;;;;7.30;4.32;;;;;;;22.24;100.00;101235.53;5033745;28;20033;-72
2023/05/23 08:12:47;;;;;;;7.30;4.93;;;;;;;21.66;100.00;101243.00;5051897;28;20557;-73
2023/05/23 08:15:13;;;;;;;9.68;4.93;;;;;;;22.12;100.00;101246.56;5051631;28;20021;-72
2023/05/23 08:17:38;;;;;;;7.80;4.72;;;;;;;22.48;100.00;101269.59;5033830;28;20052;-73
2023/05/23 08:20:04;;;;;;;6.03;4.53;;;;;;;21.83;100.00;101275.81;5051861;28;20039;-73
2023/05/23 08:22:30;;;;;;;7.53;4.63;;;;;;;21.12;100.00;101253.63;5033737;28;20025;-73
2023/05/23 08:24:55;;;;;;;5.38;4.38;;;;;;;22.10;100.00;101336.50;5032989;28;20480;-74
2023/05/23 08:27:21;;;;;;;7.00;4.70;;;;;;;21.44;100.00;101300.25;5050502;28;20033;-74
2023/05/23 08:29:47;;;;;;;7.13;4.50;;;;;;;21.32;100.00;101337.09;5051483;28;20104;-74
2023/05/23 08:32:12;;;;;;;6.72;4.25;;;;;;;21.63;100.00;101326.00;5033653;28;20035;-73
2023/05/23 08:34:39;;;;;;;6.82;4.53;;;;;;;21.29;100.00;101263.97;5033448;28;20111;-73
2023/05/23 08:37:05;;;;;;;5.97;4.60;;;;;;;21.21;100.00;101277.31;5033651;28;20562;-73
2023/05/23 08:39:30;;;;;;;9.27;4.80;;;;;;;21.57;100.00;101274.53;5051345;28;20109;-73
2023/05/23 08:41:56;;;;;;;7.78;4.40;;;;;;;21.45;100.00;101291.56;5051562;28;20025;-73
2023/05/23 08:44:21;;;;;;;5.93;4.45;;;;;;;21.43;100.00;101284.81;5033573;28;20471;-75
2023/05/23 08:46:51;;;;;;;5.20;4.70;;;;;;;21.62;100.00;101316.59;5032998;28;20496;-73
2023/05/23 08:49:17;;;;;;;8.75;4.90;;;;;;;20.86;100.00;101234.22;5033162;28;20029;-74
2023/05/23 08:51:43;;;;;;;10.75;4.75;;;;;;;21.27;100.00;101291.69;5051183;28;20033;-73
2023/05/23 08:54:11;;;;;;;8.35;4.63;;;;;;;21.08;100.00;101249.53;5050868;28;20033;-73
2023/05/23 08:56:38;;;;;;;9.32;4.38;;;;;;;21.41;100.00;101279.69;5050541;28;20033;-73
2023/05/23 08:59:04;;;;;;;7.03;4.57;;;;;;;21.45;100.00;101325.19;5051096;28;20059;-74
2023/05/23 09:01:30;;;;;;;7.88;4.80;;;;;;;21.71;100.00;101297.97;5051298;28;20067;-73
2023/05/23 09:03:59;;;;;;;5.63;4.57;;;;;;;21.51;100.00;101267.13;5051352;28;20029;-73
2023/05/23 09:06:24;;;;;;;6.10;4.57;;;;;;;21.58;100.00;101320.25;5051410;28;20049;-74
2023/05/23 09:08:50;;;;;;;7.03;4.93;;;;;;;21.37;100.00;101322.16;5051130;28;20499;-73
2023/05/23 09:11:16;;;;;;;8.25;4.90;;;;;;;21.67;100.00;101324.94;5033106;28;20045;-73
2023/05/23 09:13:41;;;;;;;7.13;5.03;;;;;;;21.12;100.00;101245.88;5050533;28;20025;-74
2023/05/23 09:16:09;;;;;;;9.60;5.05;;;;;;;21.49;100.00;101292.25;5050692;28;20091;-73
2023/05/23 09:18:37;;;;;;;7.97;4.68;;;;;;;21.59;100.00;101352.97;5033371;28;20069;-75
2023/05/23 09:21:04;;;;;;;7.30;4.90;;;;;;;21.29;100.00;101352.78;5032866;28;20039;-72
2023/05/23 09:23:31;;;;;;;9.02;4.50;;;;;;;21.42;100.00;101338.31;5032052;28;20033;-72
2023/05/23 09:25:58;;;;;;;7.78;4.65;;;;;;;21.66;100.00;101392.34;4713603;28;9999728;-72
2023/05/23 09:28:24;;;;;;;5.57;4.60;;;;;;;21.51;100.00;101406.91;5051131;28;20033;-71
2023/05/23 09:31:00;;;;;;;9.95;4.70;;;;;;;21.72;100.00;101423.94;5049496;28;20548;-71
2023/05/23 09:33:42;;;;;;;6.95;4.70;;;;;;;21.17;100.00;101383.63;5067965;28;20495;-70
2023/05/23 09:36:08;;;;;;;6.95;4.88;;;;;;;21.47;100.00;101444.22;5070553;28;20116;-71
2023/05/23 09:38:41;;;;;;;5.10;4.45;;;;;;;21.30;100.00;101413.97;5053990;28;20594;-70
2023/05/23 09:41:07;;;;;;;7.07;4.93;;;;;;;21.62;100.00;101474.50;5071322;28;20480;-72
2023/05/23 09:43:37;;;;;;;8.32;4.40;;;;;;;21.85;100.00;101497.53;5072931;28;20033;-70
2023/05/23 09:46:11;;;;;;;7.30;4.50;;;;;;;21.53;100.00;101474.97;5072075;28;20107;-71
2023/05/23 09:48:37;;;;;;;7.85;4.35;;;;;;;21.78;100.00;101544.50;5072223;28;20111;-70
2023/05/23 09:51:12;;;;;;;7.70;4.22;;;;;;;21.76;100.00;101542.00;5067832;28;20119;-70
2023/05/23 09:53:37;;;;;;;7.32;4.43;;;;;;;22.01;100.00;101633.16;5072432;28;20066;-70
2023/05/23 09:56:04;;;;;;;5.45;4.50;;;;;;;22.37;100.00;101692.72;5069293;28;20072;-73
2023/05/23 09:58:32;;;;;;;6.13;4.65;;;;;;;22.06;100.00;101734.00;5074430;28;20051;-72
2023/05/23 10:01:02;;;;;;;7.10;4.90;;;;;;;21.90;100.00;101769.31;5072225;28;20029;-72
2023/05/23 10:03:36;;;;;;;5.80;4.82;;;;;;;21.61;100.00;101765.41;5073900;28;20031;-74
2023/05/23 10:06:09;;;;;;;7.90;5.30;;;;;;;21.79;100.00;101792.25;5072730;28;20051;-71
2023/05/23 10:08:45;;;;;;;7.93;4.82;;;;;;;22.10;100.00;101865.13;5068457;28;20548;-72
2023/05/23 10:11:15;;;;;;;9.40;5.10;;;;;;;22.39;100.00;102007.22;5056008;28;20028;-72
2023/05/23 10:13:43;;;;;;;9.23;5.25;;;;;;;22.80;100.00;102018.34;5073952;28;20510;-73
2023/05/23 10:16:20;;;;;;;6.85;4.90;;;;;;;23.35;100.00;102092.78;5073707;28;20029;-72
2023/05/23 10:18:51;;;;;;;8.95;5.05;;;;;;;23.08;100.00;102118.22;5055585;28;20029;-72
2023/05/23 10:21:27;;;;;;;8.43;5.00;;;;;;;24.05;100.00;102457.66;5073146;28;20119;-72
2023/05/23 10:23:54;;;;;;;5.97;5.38;;;;;;;23.40;100.00;102672.59;5071139;28;20111;-72
2023/05/23 10:26:20;;;;;;;7.20;4.97;;;;;;;23.74;100.00;103528.16;5073607;28;20036;-73
2023/05/23 10:28:48;;;;;;;9.80;5.35;;;;;;;24.42;100.00;103871.59;5072567;28;20033;-74
2023/05/23 10:31:14;;;;;;;9.57;5.00;;;;;;;24.08;100.00;104392.66;5055426;28;20033;-72
2023/05/23 10:33:45;;;;;;;7.05;5.22;;;;;;;24.33;100.00;104439.13;5073779;28;20070;-71
2023/05/23 10:36:18;;;;;;;8.77;5.15;;;;;;;24.69;100.00;104568.81;5073569;28;20131;-72
2023/05/23 10:39:09;;;;;;;9.40;4.72;;;;;;;24.60;100.00;105020.31;5073627;28;20025;-72
2023/05/23 10:41:47;;;;;;;6.28;4.82;;;;;;;23.92;100.00;105389.16;5073214;28;20051;-71
2023/05/23 10:44:19;;;;;;;8.35;5.28;;;;;;;24.39;100.00;105490.81;5055538;28;20121;-71
2023/05/23 10:47:02;;;;;;;8.38;4.70;;;;;;;23.42;100.00;105414.94;5055006;28;20032;-72
2023/05/23 10:49:45;;;;;;;8.15;5.30;;;;;;;22.90;100.00;105285.53;5073550;28;20467;-71
2023/05/23 10:52:13;;;;;;;8.43;4.78;;;;;;;23.46;100.00;105338.69;5073666;28;20063;-72
2023/05/23 10:54:53;;;;;;;6.82;4.20;;;;;;;23.17;100.00;105268.38;5055719;28;20024;-72
2023/05/23 10:57:20;;;;;;;8.35;4.72;;;;;;;23.37;100.00;105245.09;5073176;28;20452;-72
2023/05/23 10:59:48;;;;;;;5.80;4.72;;;;;;;23.32;100.00;105226.00;5073061;28;20021;-72
2023/05/23 11:02:17;;;;;;;6.43;4.30;;;;;;;22.83;100.00;105095.06;5073213;28;20028;-73
2023/05/23 11:04:43;;;;;;;7.57;4.60;;;;;;;23.56;100.00;105142.88;5073485;28;20021;-73
2023/05/23 11:07:29;;;;;;;6.35;4.00;;;;;;;23.32;100.00;105129.84;5073311;28;20041;-72
2023/05/23 11:10:15;;;;;;;7.00;4.63;;;;;;;23.69;100.00;105143.75;5073039;28;20025;-72
2023/05/23 11:12:43;;;;;;;7.90;4.93;;;;;;;23.44;100.00;105082.19;5072739;28;20083;-73